To NAV CANADA Home Page Login to a new session Search on AWWS site Disclaimer Vers la page française équivalente Tips FAQ What's new on the site To the Forecasts and Observations / NOTAM section To "File a Flight Plan" website Publications and other links Update of the User's profile FIC Telephone Numbers My Weather Data Folder Route Weather Data Regional Weather Data Local Weather Data To the Forecasts and Observations / NOTAM section
Request Generated 03/19/2019 at 23:06:50 UTC . Weather information available at that time is displayed.

METAR/TAF

DEER LAKE/NL    

METAR CYDF 192300Z 26006KT 15SM FEW040 SCT120 BKN180 M06/M11 A3017 RMK SC2AC1AC3 SLP219=
METAR CYDF 192200Z 26006KT 15SM FEW040 SCT120 SCT160 BKN210 M05/M12 A3015 RMK SC1AC2AC1CI2 SLP213=
METAR CYDF 192100Z 26008G17KT 15SM FEW035 BKN120 BKN220 M04/M12 A3014 RMK SC2AC3CI2 SLP210=

TAF CYDF 191938Z 1920/2008 26010G20KT P6SM SCT015 BKN050 TEMPO
1920/1922 5SM -SHSN BKN020
FM192200 25010KT P6SM BKN030
BECMG 1922/1924 25005KT
BECMG 2005/2007 VRB03KT
RMK NXT FCST BY 200200Z=
Your time UTC time
Weather data provided by Environment Canada and NAV CANADA